sensor_id;sensor_type;location;lat;lon;timestamp;P1;P2;P0
71858;PMS5003;59713;50.866;4.324;2023-04-20T00:00:35;13;11;
71858;PMS5003;59713;50.866;4.324;2023-04-20T00:01:36;11;10;
71858;PMS5003;59713;50.866;4.324;2023-04-20T00:02:35;11;10;
71858;PMS5003;59713;50.866;4.324;2023-04-20T00:02:35;11;10;
71858;PMS5003;59713;50.866;4.324;2023-04-20T00:03:34;11;10;
71858;PMS5003;59713;50.866;4.324;2023-04-20T00:04:34;10;10;
71858;PMS5003;59713;50.866;4.324;2023-04-20T00:05:34;10;10;
71858;PMS5003;59713;50.866;4.324;2023-04-20T00:06:34;10;10;
71858;PMS5003;59713;50.866;4.324;2023-04-20T00:07:57;14;11;
71858;PMS5003;59713;50.866;4.324;2023-04-20T00:08:35;14;11;
71858;PMS5003;59713;50.866;4.324;2023-04-20T00:09:34;14;11;
71858;PMS5003;59713;50.866;4.324;2023-04-20T00:10:34;11;10;
71858;PMS5003;59713;50.866;4.324;2023-04-20T00:11:34;11;10;
71858;PMS5003;59713;50.866;4.324;2023-04-20T00:12:34;11;10;
71858;PMS5003;59713;50.866;4.324;2023-04-20T00:12:34;11;10;
71858;PMS5003;59713;50.866;4.324;2023-04-20T00:13:34;10;10;
71858;PMS5003;59713;50.866;4.324;2023-04-20T00:14:34;10;10;
71858;PMS5003;59713;50.866;4.324;2023-04-20T00:15:34;10;10;
71858;PMS5003;59713;50.866;4.324;2023-04-20T00:16:34;8;8;
71858;PMS5003;59713;50.866;4.324;2023-04-20T00:17:35;8;8;
71858;PMS5003;59713;50.866;4.324;2023-04-20T00:18:34;8;8;
71858;PMS5003;59713;50.866;4.324;2023-04-20T00:19:34;11;10;
71858;PMS5003;59713;50.866;4.324;2023-04-20T00:20:34;11;10;
71858;PMS5003;59713;50.866;4.324;2023-04-20T00:21:34;11;10;
71858;PMS5003;59713;50.866;4.324;2023-04-20T00:21:35;11;10;
71858;PMS5003;59713;50.866;4.324;2023-04-20T00:22:34;11;10;
71858;PMS5003;59713;50.866;4.324;2023-04-20T00:23:34;11;10;
71858;PMS5003;59713;50.866;4.324;2023-04-20T00:24:35;11;10;
71858;PMS5003;59713;50.866;4.324;2023-04-20T00:25:35;12;10;
71858;PMS5003;59713;50.866;4.324;2023-04-20T00:26:34;12;10;
71858;PMS5003;59713;50.866;4.324;2023-04-20T00:27:34;12;10;
71858;PMS5003;59713;50.866;4.324;2023-04-20T00:28:34;10;9;
71858;PMS5003;59713;50.866;4.324;2023-04-20T00:29:34;10;9;
71858;PMS5003;59713;50.866;4.324;2023-04-20T00:30:37;10;9;
71858;PMS5003;59713;50.866;4.324;2023-04-20T00:30:37;10;9;
71858;PMS5003;59713;50.866;4.324;2023-04-20T00:31:34;13;10;
71858;PMS5003;59713;50.866;4.324;2023-04-20T00:32:34;13;10;
71858;PMS5003;59713;50.866;4.324;2023-04-20T00:33:34;13;10;
71858;PMS5003;59713;50.866;4.324;2023-04-20T00:34:34;10;10;
71858;PMS5003;59713;50.866;4.324;2023-04-20T00:35:34;10;10;
71858;PMS5003;59713;50.866;4.324;2023-04-20T00:36:34;10;10;
71858;PMS5003;59713;50.866;4.324;2023-04-20T00:37:34;7;7;
71858;PMS5003;59713;50.866;4.324;2023-04-20T00:38:35;7;7;
71858;PMS5003;59713;50.866;4.324;2023-04-20T00:39:34;7;7;
71858;PMS5003;59713;50.866;4.324;2023-04-20T00:39:34;7;7;
71858;PMS5003;59713;50.866;4.324;2023-04-20T00:40:34;12;11;
71858;PMS5003;59713;50.866;4.324;2023-04-20T00:41:35;12;11;
71858;PMS5003;59713;50.866;4.324;2023-04-20T00:42:34;12;11;
71858;PMS5003;59713;50.866;4.324;2023-04-20T00:43:36;15;10;
71858;PMS5003;59713;50.866;4.324;2023-04-20T00:44:34;15;10;
71858;PMS5003;59713;50.866;4.324;2023-04-20T00:45:34;15;10;
71858;PMS5003;59713;50.866;4.324;2023-04-20T00:46:34;10;9;
71858;PMS5003;59713;50.866;4.324;2023-04-20T00:47:35;10;9;
71858;PMS5003;59713;50.866;4.324;2023-04-20T00:48:34;10;9;
71858;PMS5003;59713;50.866;4.324;2023-04-20T00:48:34;10;9;
71858;PMS5003;59713;50.866;4.324;2023-04-20T00:49:36;10;8;
71858;PMS5003;59713;50.866;4.324;2023-04-20T00:50:35;10;8;
71858;PMS5003;59713;50.866;4.324;2023-04-20T00:51:34;10;8;
71858;PMS5003;59713;50.866;4.324;2023-04-20T00:52:36;13;12;
71858;PMS5003;59713;50.866;4.324;2023-04-20T00:53:34;13;12;
71858;PMS5003;59713;50.866;4.324;2023-04-20T00:54:35;13;12;
71858;PMS5003;59713;50.866;4.324;2023-04-20T00:55:35;9;9;
71858;PMS5003;59713;50.866;4.324;2023-04-20T00:56:34;9;9;
71858;PMS5003;59713;50.866;4.324;2023-04-20T00:57:34;9;9;
71858;PMS5003;59713;50.866;4.324;2023-04-20T00:58:35;10;10;
71858;PMS5003;59713;50.866;4.324;2023-04-20T00:58:35;10;10;
71858;PMS5003;59713;50.866;4.324;2023-04-20T00:59:34;10;10;
71858;PMS5003;59713;50.866;4.324;2023-04-20T01:00:35;10;10;
71858;PMS5003;59713;50.866;4.324;2023-04-20T01:01:34;9;8;
71858;PMS5003;59713;50.866;4.324;2023-04-20T01:02:34;9;8;
71858;PMS5003;59713;50.866;4.324;2023-04-20T01:03:35;9;8;
71858;PMS5003;59713;50.866;4.324;2023-04-20T01:04:35;8;8;
71858;PMS5003;59713;50.866;4.324;2023-04-20T01:05:34;8;8;
71858;PMS5003;59713;50.866;4.324;2023-04-20T01:06:34;8;8;
71858;PMS5003;59713;50.866;4.324;2023-04-20T01:07:34;11;11;
71858;PMS5003;59713;50.866;4.324;2023-04-20T01:07:35;11;11;
71858;PMS5003;59713;50.866;4.324;2023-04-20T01:08:35;11;11;
71858;PMS5003;59713;50.866;4.324;2023-04-20T01:09:36;11;11;
71858;PMS5003;59713;50.866;4.324;2023-04-20T01:10:34;9;9;
71858;PMS5003;59713;50.866;4.324;2023-04-20T01:11:35;9;9;
71858;PMS5003;59713;50.866;4.324;2023-04-20T01:12:35;9;9;
71858;PMS5003;59713;50.866;4.324;2023-04-20T01:13:34;14;11;
71858;PMS5003;59713;50.866;4.324;2023-04-20T01:14:34;14;11;
71858;PMS5003;59713;50.866;4.324;2023-04-20T01:15:35;14;11;
71858;PMS5003;59713;50.866;4.324;2023-04-20T01:16:35;10;10;
71858;PMS5003;59713;50.866;4.324;2023-04-20T01:17:39;10;10;
71858;PMS5003;59713;50.866;4.324;2023-04-20T01:17:39;10;10;
71858;PMS5003;59713;50.866;4.324;2023-04-20T01:18:42;10;10;
71858;PMS5003;59713;50.866;4.324;2023-04-20T01:19:37;11;11;
71858;PMS5003;59713;50.866;4.324;2023-04-20T01:20:35;11;11;
71858;PMS5003;59713;50.866;4.324;2023-04-20T01:21:35;11;11;
71858;PMS5003;59713;50.866;4.324;2023-04-20T01:22:41;11;11;
71858;PMS5003;59713;50.866;4.324;2023-04-20T01:23:35;11;11;
71858;PMS5003;59713;50.866;4.324;2023-04-20T01:24:36;11;11;
71858;PMS5003;59713;50.866;4.324;2023-04-20T01:25:35;11;11;
71858;PMS5003;59713;50.866;4.324;2023-04-20T01:26:35;11;11;
71858;PMS5003;59713;50.866;4.324;2023-04-20T01:26:35;11;11;
71858;PMS5003;59713;50.866;4.324;2023-04-20T01:27:35;11;11;
71858;PMS5003;59713;50.866;4.324;2023-04-20T01:28:35;14;11;
71858;PMS5003;59713;50.866;4.324;2023-04-20T01:29:35;14;11;
71858;PMS5003;59713;50.866;4.324;2023-04-20T01:30:35;14;11;
71858;PMS5003;59713;50.866;4.324;2023-04-20T01:31:35;10;10;
71858;PMS5003;59713;50.866;4.324;2023-04-20T01:32:35;10;10;
71858;PMS5003;59713;50.866;4.324;2023-04-20T01:33:35;10;10;
71858;PMS5003;59713;50.866;4.324;2023-04-20T01:34:35;11;11;
71858;PMS5003;59713;50.866;4.324;2023-04-20T01:35:35;11;11;
71858;PMS5003;59713;50.866;4.324;2023-04-20T01:35:35;11;11;
71858;PMS5003;59713;50.866;4.324;2023-04-20T01:36:35;11;11;
71858;PMS5003;59713;50.866;4.324;2023-04-20T01:37:35;11;10;
71858;PMS5003;59713;50.866;4.324;2023-04-20T01:38:35;11;10;
71858;PMS5003;59713;50.866;4.324;2023-04-20T01:39:35;11;10;
71858;PMS5003;59713;50.866;4.324;2023-04-20T01:40:35;11;9;
71858;PMS5003;59713;50.866;4.324;2023-04-20T01:41:35;11;9;
71858;PMS5003;59713;50.866;4.324;2023-04-20T01:42:35;11;9;
71858;PMS5003;59713;50.866;4.324;2023-04-20T01:43:35;11;11;
71858;PMS5003;59713;50.866;4.324;2023-04-20T01:44:35;11;11;
71858;PMS5003;59713;50.866;4.324;2023-04-20T01:44:35;11;11;
71858;PMS5003;59713;50.866;4.324;2023-04-20T01:45:35;11;11;
71858;PMS5003;59713;50.866;4.324;2023-04-20T01:46:36;12;10;
71858;PMS5003;59713;50.866;4.324;2023-04-20T01:47:35;12;10;
71858;PMS5003;59713;50.866;4.324;2023-04-20T01:48:35;12;10;
71858;PMS5003;59713;50.866;4.324;2023-04-20T01:49:35;15;13;
71858;PMS5003;59713;50.866;4.324;2023-04-20T01:50:35;15;13;
71858;PMS5003;59713;50.866;4.324;2023-04-20T01:51:35;15;13;
71858;PMS5003;59713;50.866;4.324;2023-04-20T01:52:35;16;12;
71858;PMS5003;59713;50.866;4.324;2023-04-20T01:53:35;16;12;
71858;PMS5003;59713;50.866;4.324;2023-04-20T01:53:35;16;12;
71858;PMS5003;59713;50.866;4.324;2023-04-20T01:54:35;16;12;
71858;PMS5003;59713;50.866;4.324;2023-04-20T01:55:35;8;8;
71858;PMS5003;59713;50.866;4.324;2023-04-20T01:56:35;8;8;
71858;PMS5003;59713;50.866;4.324;2023-04-20T01:57:35;8;8;
71858;PMS5003;59713;50.866;4.324;2023-04-20T01:58:35;12;8;
71858;PMS5003;59713;50.866;4.324;2023-04-20T01:59:35;12;8;
71858;PMS5003;59713;50.866;4.324;2023-04-20T02:00:35;12;8;
71858;PMS5003;59713;50.866;4.324;2023-04-20T02:01:35;11;11;
71858;PMS5003;59713;50.866;4.324;2023-04-20T02:02:35;11;11;
71858;PMS5003;59713;50.866;4.324;2023-04-20T02:03:35;11;11;
71858;PMS5003;59713;50.866;4.324;2023-04-20T02:03:35;11;11;
71858;PMS5003;59713;50.866;4.324;2023-04-20T02:04:35;12;11;
71858;PMS5003;59713;50.866;4.324;2023-04-20T02:05:35;12;11;
71858;PMS5003;59713;50.866;4.324;2023-04-20T02:06:35;12;11;
71858;PMS5003;59713;50.866;4.324;2023-04-20T02:07:35;11;11;
71858;PMS5003;59713;50.866;4.324;2023-04-20T02:08:35;11;11;
71858;PMS5003;59713;50.866;4.324;2023-04-20T02:09:35;11;11;
71858;PMS5003;59713;50.866;4.324;2023-04-20T02:10:35;10;10;
71858;PMS5003;59713;50.866;4.324;2023-04-20T02:11:35;10;10;
71858;PMS5003;59713;50.866;4.324;2023-04-20T02:12:35;10;10;
71858;PMS5003;59713;50.866;4.324;2023-04-20T02:12:35;10;10;
71858;PMS5003;59713;50.866;4.324;2023-04-20T02:13:35;9;9;
71858;PMS5003;59713;50.866;4.324;2023-04-20T02:14:35;9;9;
71858;PMS5003;59713;50.866;4.324;2023-04-20T02:15:36;9;9;
71858;PMS5003;59713;50.866;4.324;2023-04-20T02:16:35;11;11;
71858;PMS5003;59713;50.866;4.324;2023-04-20T02:17:35;11;11;
71858;PMS5003;59713;50.866;4.324;2023-04-20T02:18:35;11;11;
71858;PMS5003;59713;50.866;4.324;2023-04-20T02:19:35;15;10;
71858;PMS5003;59713;50.866;4.324;2023-04-20T02:20:35;15;10;
71858;PMS5003;59713;50.866;4.324;2023-04-20T02:21:35;15;10;
71858;PMS5003;59713;50.866;4.324;2023-04-20T02:22:35;11;9;
71858;PMS5003;59713;50.866;4.324;2023-04-20T02:23:35;11;9;
71858;PMS5003;59713;50.866;4.324;2023-04-20T02:24:35;11;9;
71858;PMS5003;59713;50.866;4.324;2023-04-20T02:25:35;13;12;
71858;PMS5003;59713;50.866;4.324;2023-04-20T02:26:35;13;12;
71858;PMS5003;59713;50.866;4.324;2023-04-20T02:27:35;13;12;
71858;PMS5003;59713;50.866;4.324;2023-04-20T02:28:35;13;11;
71858;PMS5003;59713;50.866;4.324;2023-04-20T02:29:35;13;11;
71858;PMS5003;59713;50.866;4.324;2023-04-20T02:30:35;13;11;
71858;PMS5003;59713;50.866;4.324;2023-04-20T02:31:35;11;11;
71858;PMS5003;59713;50.866;4.324;2023-04-20T02:31:35;11;11;
71858;PMS5003;59713;50.866;4.324;2023-04-20T02:32:35;11;11;
71858;PMS5003;59713;50.866;4.324;2023-04-20T02:33:35;11;11;
71858;PMS5003;59713;50.866;4.324;2023-04-20T02:34:35;10;10;
71858;PMS5003;59713;50.866;4.324;2023-04-20T02:35:35;10;10;
71858;PMS5003;59713;50.866;4.324;2023-04-20T02:36:35;10;10;
71858;PMS5003;59713;50.866;4.324;2023-04-20T02:37:35;12;10;
71858;PMS5003;59713;50.866;4.324;2023-04-20T02:38:35;12;10;
71858;PMS5003;59713;50.866;4.324;2023-04-20T02:39:35;12;10;
71858;PMS5003;59713;50.866;4.324;2023-04-20T02:40:35;11;11;
71858;PMS5003;59713;50.866;4.324;2023-04-20T02:40:35;11;11;
71858;PMS5003;59713;50.866;4.324;2023-04-20T02:41:35;11;11;
71858;PMS5003;59713;50.866;4.324;2023-04-20T02:42:35;11;11;
71858;PMS5003;59713;50.866;4.324;2023-04-20T02:43:35;10;10;
71858;PMS5003;59713;50.866;4.324;2023-04-20T02:44:35;10;10;
71858;PMS5003;59713;50.866;4.324;2023-04-20T02:45:35;10;10;
71858;PMS5003;59713;50.866;4.324;2023-04-20T02:46:35;9;9;
71858;PMS5003;59713;50.866;4.324;2023-04-20T02:47:35;9;9;
71858;PMS5003;59713;50.866;4.324;2023-04-20T02:48:35;9;9;
71858;PMS5003;59713;50.866;4.324;2023-04-20T02:49:35;14;11;
71858;PMS5003;59713;50.866;4.324;2023-04-20T02:49:35;14;11;
71858;PMS5003;59713;50.866;4.324;2023-04-20T02:50:35;14;11;
71858;PMS5003;59713;50.866;4.324;2023-04-20T02:51:35;14;11;
71858;PMS5003;59713;50.866;4.324;2023-04-20T02:52:35;10;10;
71858;PMS5003;59713;50.866;4.324;2023-04-20T02:53:35;10;10;
71858;PMS5003;59713;50.866;4.324;2023-04-20T02:54:35;10;10;
71858;PMS5003;59713;50.866;4.324;2023-04-20T02:55:35;12;11;
71858;PMS5003;59713;50.866;4.324;2023-04-20T02:56:35;12;11;
71858;PMS5003;59713;50.866;4.324;2023-04-20T02:57:35;12;11;
71858;PMS5003;59713;50.866;4.324;2023-04-20T02:58:35;10;10;
71858;PMS5003;59713;50.866;4.324;2023-04-20T02:58:35;10;10;
71858;PMS5003;59713;50.866;4.324;2023-04-20T02:59:35;10;10;
71858;PMS5003;59713;50.866;4.324;2023-04-20T03:00:35;10;10;
71858;PMS5003;59713;50.866;4.324;2023-04-20T03:01:35;11;10;
71858;PMS5003;59713;50.866;4.324;2023-04-20T03:02:35;11;10;
71858;PMS5003;59713;50.866;4.324;2023-04-20T03:03:35;11;10;
71858;PMS5003;59713;50.866;4.324;2023-04-20T03:04:35;12;10;
71858;PMS5003;59713;50.866;4.324;2023-04-20T03:05:35;12;10;
71858;PMS5003;59713;50.866;4.324;2023-04-20T03:06:35;12;10;
71858;PMS5003;59713;50.866;4.324;2023-04-20T03:07:35;11;10;
71858;PMS5003;59713;50.866;4.324;2023-04-20T03:08:35;11;10;
71858;PMS5003;59713;50.866;4.324;2023-04-20T03:08:35;11;10;
71858;PMS5003;59713;50.866;4.324;2023-04-20T03:09:35;11;10;
71858;PMS5003;59713;50.866;4.324;2023-04-20T03:10:35;9;9;
71858;PMS5003;59713;50.866;4.324;2023-04-20T03:11:35;9;9;
71858;PMS5003;59713;50.866;4.324;2023-04-20T03:12:35;9;9;
71858;PMS5003;59713;50.866;4.324;2023-04-20T03:13:35;14;13;
71858;PMS5003;59713;50.866;4.324;2023-04-20T03:14:36;14;13;
71858;PMS5003;59713;50.866;4.324;2023-04-20T03:15:35;14;13;
71858;PMS5003;59713;50.866;4.324;2023-04-20T03:16:35;12;10;
71858;PMS5003;59713;50.866;4.324;2023-04-20T03:17:35;12;10;
71858;PMS5003;59713;50.866;4.324;2023-04-20T03:17:35;12;10;
71858;PMS5003;59713;50.866;4.324;2023-04-20T03:18:36;12;10;
71858;PMS5003;59713;50.866;4.324;2023-04-20T03:19:35;15;9;
71858;PMS5003;59713;50.866;4.324;2023-04-20T03:20:35;15;9;
71858;PMS5003;59713;50.866;4.324;2023-04-20T03:21:35;15;9;
71858;PMS5003;59713;50.866;4.324;2023-04-20T03:22:35;12;10;
71858;PMS5003;59713;50.866;4.324;2023-04-20T03:23:35;12;10;
71858;PMS5003;59713;50.866;4.324;2023-04-20T03:24:35;12;10;
71858;PMS5003;59713;50.866;4.324;2023-04-20T03:25:35;10;10;
71858;PMS5003;59713;50.866;4.324;2023-04-20T03:26:35;10;10;
71858;PMS5003;59713;50.866;4.324;2023-04-20T03:26:35;10;10;
71858;PMS5003;59713;50.866;4.324;2023-04-20T03:27:35;10;10;
71858;PMS5003;59713;50.866;4.324;2023-04-20T03:28:35;9;9;
71858;PMS5003;59713;50.866;4.324;2023-04-20T03:29:35;9;9;
71858;PMS5003;59713;50.866;4.324;2023-04-20T03:30:35;9;9;
71858;PMS5003;59713;50.866;4.324;2023-04-20T03:31:35;8;8;
71858;PMS5003;59713;50.866;4.324;2023-04-20T03:32:35;8;8;
71858;PMS5003;59713;50.866;4.324;2023-04-20T03:33:35;8;8;
71858;PMS5003;59713;50.866;4.324;2023-04-20T03:34:35;12;10;
71858;PMS5003;59713;50.866;4.324;2023-04-20T03:35:35;12;10;
71858;PMS5003;59713;50.866;4.324;2023-04-20T03:36:35;12;10;
71858;PMS5003;59713;50.866;4.324;2023-04-20T03:36:35;12;10;
71858;PMS5003;59713;50.866;4.324;2023-04-20T03:37:35;7;6;
71858;PMS5003;59713;50.866;4.324;2023-04-20T03:38:35;7;6;
71858;PMS5003;59713;50.866;4.324;2023-04-20T03:39:35;7;6;
71858;PMS5003;59713;50.866;4.324;2023-04-20T03:40:35;8;7;
71858;PMS5003;59713;50.866;4.324;2023-04-20T03:41:35;8;7;
71858;PMS5003;59713;50.866;4.324;2023-04-20T03:42:35;8;7;
71858;PMS5003;59713;50.866;4.324;2023-04-20T03:43:35;7;7;
71858;PMS5003;59713;50.866;4.324;2023-04-20T03:44:35;7;7;
71858;PMS5003;59713;50.866;4.324;2023-04-20T03:45:35;7;7;
71858;PMS5003;59713;50.866;4.324;2023-04-20T03:45:35;7;7;
71858;PMS5003;59713;50.866;4.324;2023-04-20T03:46:35;6;5;
71858;PMS5003;59713;50.866;4.324;2023-04-20T03:47:35;6;5;
71858;PMS5003;59713;50.866;4.324;2023-04-20T03:48:35;6;5;
71858;PMS5003;59713;50.866;4.324;2023-04-20T03:49:35;9;8;
71858;PMS5003;59713;50.866;4.324;2023-04-20T03:50:35;9;8;
71858;PMS5003;59713;50.866;4.324;2023-04-20T03:51:35;9;8;
71858;PMS5003;59713;50.866;4.324;2023-04-20T03:52:35;14;10;
71858;PMS5003;59713;50.866;4.324;2023-04-20T03:53:35;14;10;
71858;PMS5003;59713;50.866;4.324;2023-04-20T03:54:35;14;10;
71858;PMS5003;59713;50.866;4.324;2023-04-20T03:55:35;10;8;
71858;PMS5003;59713;50.866;4.324;2023-04-20T03:55:35;10;8;
71858;PMS5003;59713;50.866;4.324;2023-04-20T03:56:35;10;8;
71858;PMS5003;59713;50.866;4.324;2023-04-20T03:57:35;10;8;
71858;PMS5003;59713;50.866;4.324;2023-04-20T03:58:35;12;9;
71858;PMS5003;59713;50.866;4.324;2023-04-20T03:59:35;12;9;
71858;PMS5003;59713;50.866;4.324;2023-04-20T04:00:35;12;9;
71858;PMS5003;59713;50.866;4.324;2023-04-20T04:01:35;9;9;
71858;PMS5003;59713;50.866;4.324;2023-04-20T04:02:35;9;9;
71858;PMS5003;59713;50.866;4.324;2023-04-20T04:03:35;9;9;
71858;PMS5003;59713;50.866;4.324;2023-04-20T04:04:35;10;9;
71858;PMS5003;59713;50.866;4.324;2023-04-20T04:04:35;10;9;
71858;PMS5003;59713;50.866;4.324;2023-04-20T04:05:35;10;9;
71858;PMS5003;59713;50.866;4.324;2023-04-20T04:06:35;10;9;
71858;PMS5003;59713;50.866;4.324;2023-04-20T04:07:35;9;9;
71858;PMS5003;59713;50.866;4.324;2023-04-20T04:08:35;9;9;
71858;PMS5003;59713;50.866;4.324;2023-04-20T04:09:35;9;9;
71858;PMS5003;59713;50.866;4.324;2023-04-20T04:10:35;11;11;
71858;PMS5003;59713;50.866;4.324;2023-04-20T04:11:35;11;11;
71858;PMS5003;59713;50.866;4.324;2023-04-20T04:12:35;11;11;
71858;PMS5003;59713;50.866;4.324;2023-04-20T04:13:35;13;9;
71858;PMS5003;59713;50.866;4.324;2023-04-20T04:13:35;13;9;
71858;PMS5003;59713;50.866;4.324;2023-04-20T04:14:35;13;9;
71858;PMS5003;59713;50.866;4.324;2023-04-20T04:15:35;13;9;
71858;PMS5003;59713;50.866;4.324;2023-04-20T04:16:35;15;10;
71858;PMS5003;59713;50.866;4.324;2023-04-20T04:17:35;15;10;
71858;PMS5003;59713;50.866;4.324;2023-04-20T04:18:35;15;10;
71858;PMS5003;59713;50.866;4.324;2023-04-20T04:19:35;8;8;
71858;PMS5003;59713;50.866;4.324;2023-04-20T04:20:35;8;8;
71858;PMS5003;59713;50.866;4.324;2023-04-20T04:21:35;8;8;
71858;PMS5003;59713;50.866;4.324;2023-04-20T04:22:35;11;8;
71858;PMS5003;59713;50.866;4.324;2023-04-20T04:22:35;11;8;
71858;PMS5003;59713;50.866;4.324;2023-04-20T04:23:35;11;8;
71858;PMS5003;59713;50.866;4.324;2023-04-20T04:24:35;11;8;
71858;PMS5003;59713;50.866;4.324;2023-04-20T04:25:36;10;9;
71858;PMS5003;59713;50.866;4.324;2023-04-20T04:26:35;10;9;
71858;PMS5003;59713;50.866;4.324;2023-04-20T04:27:35;10;9;
71858;PMS5003;59713;50.866;4.324;2023-04-20T04:28:35;9;8;
71858;PMS5003;59713;50.866;4.324;2023-04-20T04:29:35;9;8;
71858;PMS5003;59713;50.866;4.324;2023-04-20T04:30:35;9;8;
71858;PMS5003;59713;50.866;4.324;2023-04-20T04:31:35;11;8;
71858;PMS5003;59713;50.866;4.324;2023-04-20T04:31:35;11;8;
71858;PMS5003;59713;50.866;4.324;2023-04-20T04:32:35;11;8;
71858;PMS5003;59713;50.866;4.324;2023-04-20T04:33:35;11;8;
71858;PMS5003;59713;50.866;4.324;2023-04-20T04:34:35;9;7;
71858;PMS5003;59713;50.866;4.324;2023-04-20T04:35:35;9;7;
71858;PMS5003;59713;50.866;4.324;2023-04-20T04:36:35;9;7;
71858;PMS5003;59713;50.866;4.324;2023-04-20T04:37:35;7;7;
71858;PMS5003;59713;50.866;4.324;2023-04-20T04:38:35;7;7;
71858;PMS5003;59713;50.866;4.324;2023-04-20T04:39:35;7;7;
71858;PMS5003;59713;50.866;4.324;2023-04-20T04:40:35;8;8;
71858;PMS5003;59713;50.866;4.324;2023-04-20T04:40:35;8;8;
71858;PMS5003;59713;50.866;4.324;2023-04-20T04:41:35;8;8;
71858;PMS5003;59713;50.866;4.324;2023-04-20T04:42:35;8;8;
71858;PMS5003;59713;50.866;4.324;2023-04-20T04:43:35;9;9;
71858;PMS5003;59713;50.866;4.324;2023-04-20T04:44:35;9;9;
71858;PMS5003;59713;50.866;4.324;2023-04-20T04:45:36;9;9;
71858;PMS5003;59713;50.866;4.324;2023-04-20T04:46:35;12;9;
71858;PMS5003;59713;50.866;4.324;2023-04-20T04:47:36;12;9;
71858;PMS5003;59713;50.866;4.324;2023-04-20T04:48:35;12;9;
71858;PMS5003;59713;50.866;4.324;2023-04-20T04:49:35;11;11;
71858;PMS5003;59713;50.866;4.324;2023-04-20T04:49:35;11;11;
71858;PMS5003;59713;50.866;4.324;2023-04-20T04:50:35;11;11;
71858;PMS5003;59713;50.866;4.324;2023-04-20T04:51:35;11;11;
71858;PMS5003;59713;50.866;4.324;2023-04-20T04:52:35;5;3;
71858;PMS5003;59713;50.866;4.324;2023-04-20T04:53:35;5;3;
71858;PMS5003;59713;50.866;4.324;2023-04-20T04:54:35;5;3;
71858;PMS5003;59713;50.866;4.324;2023-04-20T04:55:35;11;9;
71858;PMS5003;59713;50.866;4.324;2023-04-20T04:56:35;11;9;
71858;PMS5003;59713;50.866;4.324;2023-04-20T04:57:35;11;9;
71858;PMS5003;59713;50.866;4.324;2023-04-20T04:58:35;9;8;
71858;PMS5003;59713;50.866;4.324;2023-04-20T04:58:35;9;8;
71858;PMS5003;59713;50.866;4.324;2023-04-20T04:59:35;9;8;
71858;PMS5003;59713;50.866;4.324;2023-04-20T05:00:36;9;8;
71858;PMS5003;59713;50.866;4.324;2023-04-20T05:01:35;7;6;
71858;PMS5003;59713;50.866;4.324;2023-04-20T05:02:35;7;6;
71858;PMS5003;59713;50.866;4.324;2023-04-20T05:03:35;7;6;
71858;PMS5003;59713;50.866;4.324;2023-04-20T05:04:35;10;8;
71858;PMS5003;59713;50.866;4.324;2023-04-20T05:05:35;10;8;
71858;PMS5003;59713;50.866;4.324;2023-04-20T05:06:35;10;8;
71858;PMS5003;59713;50.866;4.324;2023-04-20T05:07:35;10;9;
71858;PMS5003;59713;50.866;4.324;2023-04-20T05:07:35;10;9;
71858;PMS5003;59713;50.866;4.324;2023-04-20T05:08:35;10;9;
71858;PMS5003;59713;50.866;4.324;2023-04-20T05:09:35;10;9;
71858;PMS5003;59713;50.866;4.324;2023-04-20T05:10:35;13;8;
71858;PMS5003;59713;50.866;4.324;2023-04-20T05:11:35;13;8;
71858;PMS5003;59713;50.866;4.324;2023-04-20T05:12:35;13;8;
71858;PMS5003;59713;50.866;4.324;2023-04-20T05:13:35;9;6;
71858;PMS5003;59713;50.866;4.324;2023-04-20T05:14:35;9;6;
71858;PMS5003;59713;50.866;4.324;2023-04-20T05:15:36;9;6;
71858;PMS5003;59713;50.866;4.324;2023-04-20T05:16:35;8;8;
71858;PMS5003;59713;50.866;4.324;2023-04-20T05:17:35;8;8;
71858;PMS5003;59713;50.866;4.324;2023-04-20T05:17:35;8;8;
71858;PMS5003;59713;50.866;4.324;2023-04-20T05:18:35;8;8;
71858;PMS5003;59713;50.866;4.324;2023-04-20T05:19:35;9;8;
71858;PMS5003;59713;50.866;4.324;2023-04-20T05:20:35;9;8;
71858;PMS5003;59713;50.866;4.324;2023-04-20T05:21:35;9;8;
71858;PMS5003;59713;50.866;4.324;2023-04-20T05:22:35;7;7;
71858;PMS5003;59713;50.866;4.324;2023-04-20T05:23:35;7;7;
71858;PMS5003;59713;50.866;4.324;2023-04-20T05:24:35;7;7;
71858;PMS5003;59713;50.866;4.324;2023-04-20T05:25:35;7;7;
71858;PMS5003;59713;50.866;4.324;2023-04-20T05:26:35;7;7;
71858;PMS5003;59713;50.866;4.324;2023-04-20T05:26:35;7;7;
71858;PMS5003;59713;50.866;4.324;2023-04-20T05:27:35;7;7;
71858;PMS5003;59713;50.866;4.324;2023-04-20T05:28:35;12;11;
71858;PMS5003;59713;50.866;4.324;2023-04-20T05:29:35;12;11;
71858;PMS5003;59713;50.866;4.324;2023-04-20T05:30:36;12;11;
71858;PMS5003;59713;50.866;4.324;2023-04-20T05:31:35;9;9;
71858;PMS5003;59713;50.866;4.324;2023-04-20T05:32:35;9;9;
71858;PMS5003;59713;50.866;4.324;2023-04-20T05:33:35;9;9;
71858;PMS5003;59713;50.866;4.324;2023-04-20T05:34:35;14;11;
71858;PMS5003;59713;50.866;4.324;2023-04-20T05:35:35;14;11;
71858;PMS5003;59713;50.866;4.324;2023-04-20T05:35:35;14;11;
71858;PMS5003;59713;50.866;4.324;2023-04-20T05:36:35;14;11;
71858;PMS5003;59713;50.866;4.324;2023-04-20T05:37:35;8;8;
71858;PMS5003;59713;50.866;4.324;2023-04-20T05:38:35;8;8;
71858;PMS5003;59713;50.866;4.324;2023-04-20T05:39:35;8;8;
71858;PMS5003;59713;50.866;4.324;2023-04-20T05:40:35;9;8;
71858;PMS5003;59713;50.866;4.324;2023-04-20T05:41:35;9;8;
71858;PMS5003;59713;50.866;4.324;2023-04-20T05:42:35;9;8;
71858;PMS5003;59713;50.866;4.324;2023-04-20T05:43:35;11;9;
71858;PMS5003;59713;50.866;4.324;2023-04-20T05:44:35;11;9;
71858;PMS5003;59713;50.866;4.324;2023-04-20T05:44:35;11;9;
71858;PMS5003;59713;50.866;4.324;2023-04-20T05:45:35;11;9;
71858;PMS5003;59713;50.866;4.324;2023-04-20T05:46:35;11;9;
71858;PMS5003;59713;50.866;4.324;2023-04-20T05:47:39;11;9;
71858;PMS5003;59713;50.866;4.324;2023-04-20T05:48:35;11;9;
71858;PMS5003;59713;50.866;4.324;2023-04-20T05:49:35;10;8;
71858;PMS5003;59713;50.866;4.324;2023-04-20T05:50:35;10;8;
71858;PMS5003;59713;50.866;4.324;2023-04-20T05:51:35;10;8;
71858;PMS5003;59713;50.866;4.324;2023-04-20T05:52:35;10;9;
71858;PMS5003;59713;50.866;4.324;2023-04-20T05:53:35;10;9;
71858;PMS5003;59713;50.866;4.324;2023-04-20T05:53:35;10;9;
71858;PMS5003;59713;50.866;4.324;2023-04-20T05:54:35;10;9;
71858;PMS5003;59713;50.866;4.324;2023-04-20T05:55:35;10;8;
71858;PMS5003;59713;50.866;4.324;2023-04-20T05:56:35;10;8;
71858;PMS5003;59713;50.866;4.324;2023-04-20T05:57:35;10;8;
71858;PMS5003;59713;50.866;4.324;2023-04-20T05:58:35;11;10;
71858;PMS5003;59713;50.866;4.324;2023-04-20T05:59:35;11;10;
71858;PMS5003;59713;50.866;4.324;2023-04-20T06:00:35;11;10;
71858;PMS5003;59713;50.866;4.324;2023-04-20T06:01:45;10;9;
71858;PMS5003;59713;50.866;4.324;2023-04-20T06:02:35;10;9;
71858;PMS5003;59713;50.866;4.324;2023-04-20T06:02:35;10;9;
71858;PMS5003;59713;50.866;4.324;2023-04-20T06:03:35;10;9;
71858;PMS5003;59713;50.866;4.324;2023-04-20T06:04:35;12;9;